sensor_id;sensor_type;location;lat;lon;timestamp;P1;durP1;ratioP1;P2;durP2;ratioP2
22634;SDS011;11484;50.858;4.384;2024-02-23T00:01:36;4.85;;;1.08;;
22634;SDS011;11484;50.858;4.384;2024-02-23T00:04:01;3.92;;;1.13;;
22634;SDS011;11484;50.858;4.384;2024-02-23T00:06:28;4.18;;;1.35;;
22634;SDS011;11484;50.858;4.384;2024-02-23T00:08:55;5.35;;;1.38;;
22634;SDS011;11484;50.858;4.384;2024-02-23T00:11:21;3.92;;;1.45;;
22634;SDS011;11484;50.858;4.384;2024-02-23T00:13:47;2.33;;;0.82;;
22634;SDS011;11484;50.858;4.384;2024-02-23T00:16:13;3.85;;;1.30;;
22634;SDS011;11484;50.858;4.384;2024-02-23T00:18:39;2.75;;;1.17;;
22634;SDS011;11484;50.858;4.384;2024-02-23T00:21:06;3.47;;;1.00;;
22634;SDS011;11484;50.858;4.384;2024-02-23T00:23:35;3.88;;;1.38;;
22634;SDS011;11484;50.858;4.384;2024-02-23T00:26:01;4.30;;;1.33;;
22634;SDS011;11484;50.858;4.384;2024-02-23T00:28:27;3.35;;;0.90;;
22634;SDS011;11484;50.858;4.384;2024-02-23T00:30:55;4.75;;;1.00;;
22634;SDS011;11484;50.858;4.384;2024-02-23T00:33:21;3.20;;;0.93;;
22634;SDS011;11484;50.858;4.384;2024-02-23T00:35:46;3.63;;;1.25;;
22634;SDS011;11484;50.858;4.384;2024-02-23T00:38:12;3.63;;;1.23;;
22634;SDS011;11484;50.858;4.384;2024-02-23T00:40:38;3.47;;;1.38;;
22634;SDS011;11484;50.858;4.384;2024-02-23T00:43:04;3.65;;;1.27;;
22634;SDS011;11484;50.858;4.384;2024-02-23T00:45:29;3.10;;;0.95;;
22634;SDS011;11484;50.858;4.384;2024-02-23T00:47:55;4.00;;;1.27;;
22634;SDS011;11484;50.858;4.384;2024-02-23T00:50:22;2.97;;;0.88;;
22634;SDS011;11484;50.858;4.384;2024-02-23T00:52:51;4.47;;;1.42;;
22634;SDS011;11484;50.858;4.384;2024-02-23T00:55:17;3.13;;;0.90;;
22634;SDS011;11484;50.858;4.384;2024-02-23T00:57:43;1.50;;;0.70;;
22634;SDS011;11484;50.858;4.384;2024-02-23T01:00:09;2.55;;;0.80;;
22634;SDS011;11484;50.858;4.384;2024-02-23T01:02:35;2.00;;;0.80;;
22634;SDS011;11484;50.858;4.384;2024-02-23T01:05:01;3.33;;;0.80;;
22634;SDS011;11484;50.858;4.384;2024-02-23T01:07:29;2.63;;;1.08;;
22634;SDS011;11484;50.858;4.384;2024-02-23T01:09:55;4.57;;;1.05;;
22634;SDS011;11484;50.858;4.384;2024-02-23T01:12:21;2.78;;;0.93;;
22634;SDS011;11484;50.858;4.384;2024-02-23T01:14:47;3.40;;;1.08;;
22634;SDS011;11484;50.858;4.384;2024-02-23T01:17:14;2.20;;;0.80;;
22634;SDS011;11484;50.858;4.384;2024-02-23T01:19:40;2.83;;;0.90;;
22634;SDS011;11484;50.858;4.384;2024-02-23T01:22:07;5.38;;;1.15;;
22634;SDS011;11484;50.858;4.384;2024-02-23T01:24:33;3.78;;;1.10;;
22634;SDS011;11484;50.858;4.384;2024-02-23T01:26:59;4.95;;;1.55;;
22634;SDS011;11484;50.858;4.384;2024-02-23T01:29:25;3.50;;;1.00;;
22634;SDS011;11484;50.858;4.384;2024-02-23T01:31:51;4.38;;;1.00;;
22634;SDS011;11484;50.858;4.384;2024-02-23T01:34:19;2.70;;;1.13;;
22634;SDS011;11484;50.858;4.384;2024-02-23T01:36:46;2.95;;;0.88;;
22634;SDS011;11484;50.858;4.384;2024-02-23T01:39:12;2.90;;;1.00;;
22634;SDS011;11484;50.858;4.384;2024-02-23T01:41:38;2.60;;;0.90;;
22634;SDS011;11484;50.858;4.384;2024-02-23T01:44:04;1.40;;;1.10;;
22634;SDS011;11484;50.858;4.384;2024-02-23T01:46:30;4.75;;;1.30;;
22634;SDS011;11484;50.858;4.384;2024-02-23T01:48:56;3.08;;;1.17;;
22634;SDS011;11484;50.858;4.384;2024-02-23T01:51:23;6.35;;;1.40;;
22634;SDS011;11484;50.858;4.384;2024-02-23T01:53:50;4.47;;;1.63;;
22634;SDS011;11484;50.858;4.384;2024-02-23T01:56:17;3.53;;;1.15;;
22634;SDS011;11484;50.858;4.384;2024-02-23T01:58:43;5.60;;;1.15;;
22634;SDS011;11484;50.858;4.384;2024-02-23T02:01:09;3.50;;;1.13;;
22634;SDS011;11484;50.858;4.384;2024-02-23T02:03:35;4.47;;;1.30;;
22634;SDS011;11484;50.858;4.384;2024-02-23T02:06:03;2.38;;;1.10;;
22634;SDS011;11484;50.858;4.384;2024-02-23T02:08:35;4.28;;;1.20;;
22634;SDS011;11484;50.858;4.384;2024-02-23T02:11:01;3.42;;;1.25;;
22634;SDS011;11484;50.858;4.384;2024-02-23T02:13:30;3.08;;;1.20;;
22634;SDS011;11484;50.858;4.384;2024-02-23T02:15:58;4.95;;;1.38;;
22634;SDS011;11484;50.858;4.384;2024-02-23T02:18:26;3.92;;;1.30;;
22634;SDS011;11484;50.858;4.384;2024-02-23T02:20:53;3.53;;;0.93;;
22634;SDS011;11484;50.858;4.384;2024-02-23T02:23:21;5.25;;;1.10;;
22634;SDS011;11484;50.858;4.384;2024-02-23T02:25:53;5.97;;;1.48;;
22634;SDS011;11484;50.858;4.384;2024-02-23T02:28:22;7.25;;;1.50;;
22634;SDS011;11484;50.858;4.384;2024-02-23T02:30:49;4.75;;;1.00;;
22634;SDS011;11484;50.858;4.384;2024-02-23T02:33:15;4.40;;;1.55;;
22634;SDS011;11484;50.858;4.384;2024-02-23T02:35:41;5.53;;;1.38;;
22634;SDS011;11484;50.858;4.384;2024-02-23T02:38:07;5.93;;;1.38;;
22634;SDS011;11484;50.858;4.384;2024-02-23T02:40:33;6.18;;;1.25;;
22634;SDS011;11484;50.858;4.384;2024-02-23T02:42:58;3.55;;;1.20;;
22634;SDS011;11484;50.858;4.384;2024-02-23T02:45:24;7.28;;;1.55;;
22634;SDS011;11484;50.858;4.384;2024-02-23T02:47:50;5.50;;;1.67;;
22634;SDS011;11484;50.858;4.384;2024-02-23T02:50:15;8.68;;;1.77;;
22634;SDS011;11484;50.858;4.384;2024-02-23T02:52:41;6.90;;;1.60;;
22634;SDS011;11484;50.858;4.384;2024-02-23T02:55:07;5.45;;;1.60;;
22634;SDS011;11484;50.858;4.384;2024-02-23T02:57:33;2.50;;;1.02;;
22634;SDS011;11484;50.858;4.384;2024-02-23T03:00:01;4.65;;;1.60;;
22634;SDS011;11484;50.858;4.384;2024-02-23T03:02:30;3.85;;;1.23;;
22634;SDS011;11484;50.858;4.384;2024-02-23T03:04:56;5.75;;;1.50;;
22634;SDS011;11484;50.858;4.384;2024-02-23T03:07:22;5.35;;;1.50;;
22634;SDS011;11484;50.858;4.384;2024-02-23T03:09:47;7.82;;;1.90;;
22634;SDS011;11484;50.858;4.384;2024-02-23T03:12:15;6.50;;;1.63;;
22634;SDS011;11484;50.858;4.384;2024-02-23T03:14:41;4.18;;;1.63;;
22634;SDS011;11484;50.858;4.384;2024-02-23T03:17:07;6.82;;;1.98;;
22634;SDS011;11484;50.858;4.384;2024-02-23T03:19:34;5.93;;;1.50;;
22634;SDS011;11484;50.858;4.384;2024-02-23T03:22:00;5.60;;;1.60;;
22634;SDS011;11484;50.858;4.384;2024-02-23T03:24:26;3.05;;;1.60;;
22634;SDS011;11484;50.858;4.384;2024-02-23T03:26:51;5.15;;;1.63;;
22634;SDS011;11484;50.858;4.384;2024-02-23T03:29:17;6.25;;;1.90;;
22634;SDS011;11484;50.858;4.384;2024-02-23T03:31:43;6.68;;;2.00;;
22634;SDS011;11484;50.858;4.384;2024-02-23T03:34:09;8.50;;;2.10;;
22634;SDS011;11484;50.858;4.384;2024-02-23T03:36:34;7.00;;;2.05;;
22634;SDS011;11484;50.858;4.384;2024-02-23T03:39:02;8.65;;;2.13;;
22634;SDS011;11484;50.858;4.384;2024-02-23T03:41:27;4.30;;;1.67;;
22634;SDS011;11484;50.858;4.384;2024-02-23T03:43:53;6.40;;;2.30;;
22634;SDS011;11484;50.858;4.384;2024-02-23T03:46:19;4.72;;;2.05;;
22634;SDS011;11484;50.858;4.384;2024-02-23T03:48:45;6.10;;;2.17;;
22634;SDS011;11484;50.858;4.384;2024-02-23T03:51:11;6.20;;;2.25;;
22634;SDS011;11484;50.858;4.384;2024-02-23T03:53:37;11.25;;;2.38;;
22634;SDS011;11484;50.858;4.384;2024-02-23T03:56:02;4.85;;;2.22;;
22634;SDS011;11484;50.858;4.384;2024-02-23T03:58:28;9.25;;;2.83;;
22634;SDS011;11484;50.858;4.384;2024-02-23T04:00:54;7.72;;;2.45;;
22634;SDS011;11484;50.858;4.384;2024-02-23T04:03:20;7.88;;;2.72;;
22634;SDS011;11484;50.858;4.384;2024-02-23T04:05:45;6.22;;;2.28;;
22634;SDS011;11484;50.858;4.384;2024-02-23T04:08:12;6.18;;;2.97;;
22634;SDS011;11484;50.858;4.384;2024-02-23T04:10:38;8.48;;;2.17;;
22634;SDS011;11484;50.858;4.384;2024-02-23T04:13:03;9.13;;;2.38;;
22634;SDS011;11484;50.858;4.384;2024-02-23T04:15:29;7.82;;;2.45;;
22634;SDS011;11484;50.858;4.384;2024-02-23T04:17:55;9.30;;;2.30;;
22634;SDS011;11484;50.858;4.384;2024-02-23T04:20:20;4.78;;;2.00;;
22634;SDS011;11484;50.858;4.384;2024-02-23T04:22:46;7.82;;;2.10;;
22634;SDS011;11484;50.858;4.384;2024-02-23T04:25:12;5.93;;;2.33;;
22634;SDS011;11484;50.858;4.384;2024-02-23T04:27:38;6.97;;;2.22;;
22634;SDS011;11484;50.858;4.384;2024-02-23T04:30:04;6.32;;;1.85;;
22634;SDS011;11484;50.858;4.384;2024-02-23T04:32:31;5.93;;;2.10;;
22634;SDS011;11484;50.858;4.384;2024-02-23T04:34:56;7.50;;;1.95;;
22634;SDS011;11484;50.858;4.384;2024-02-23T04:37:22;6.25;;;1.90;;
22634;SDS011;11484;50.858;4.384;2024-02-23T04:39:48;5.65;;;1.98;;
22634;SDS011;11484;50.858;4.384;2024-02-23T04:42:13;9.90;;;1.90;;
22634;SDS011;11484;50.858;4.384;2024-02-23T04:44:42;6.00;;;1.80;;
22634;SDS011;11484;50.858;4.384;2024-02-23T04:47:08;7.20;;;2.13;;
22634;SDS011;11484;50.858;4.384;2024-02-23T04:49:34;11.73;;;2.28;;
22634;SDS011;11484;50.858;4.384;2024-02-23T04:52:00;9.38;;;2.35;;
22634;SDS011;11484;50.858;4.384;2024-02-23T04:54:26;9.32;;;2.22;;
22634;SDS011;11484;50.858;4.384;2024-02-23T04:56:52;6.90;;;1.83;;
22634;SDS011;11484;50.858;4.384;2024-02-23T04:59:17;10.52;;;2.70;;
22634;SDS011;11484;50.858;4.384;2024-02-23T05:01:43;7.88;;;2.60;;
22634;SDS011;11484;50.858;4.384;2024-02-23T05:04:09;8.07;;;2.03;;
22634;SDS011;11484;50.858;4.384;2024-02-23T05:06:35;8.77;;;2.10;;
22634;SDS011;11484;50.858;4.384;2024-02-23T05:09:01;7.32;;;2.30;;
22634;SDS011;11484;50.858;4.384;2024-02-23T05:11:28;8.95;;;2.00;;
22634;SDS011;11484;50.858;4.384;2024-02-23T05:13:53;6.93;;;1.70;;
22634;SDS011;11484;50.858;4.384;2024-02-23T05:16:19;3.75;;;1.60;;
22634;SDS011;11484;50.858;4.384;2024-02-23T05:18:45;3.78;;;2.10;;
22634;SDS011;11484;50.858;4.384;2024-02-23T05:21:11;4.70;;;1.30;;
22634;SDS011;11484;50.858;4.384;2024-02-23T05:23:39;5.95;;;1.55;;
22634;SDS011;11484;50.858;4.384;2024-02-23T05:26:07;7.35;;;1.67;;
22634;SDS011;11484;50.858;4.384;2024-02-23T05:28:33;4.40;;;1.42;;
22634;SDS011;11484;50.858;4.384;2024-02-23T05:30:59;8.50;;;1.85;;
22634;SDS011;11484;50.858;4.384;2024-02-23T05:33:27;7.88;;;1.50;;
22634;SDS011;11484;50.858;4.384;2024-02-23T05:35:52;7.32;;;1.63;;
22634;SDS011;11484;50.858;4.384;2024-02-23T05:38:18;6.47;;;1.70;;
22634;SDS011;11484;50.858;4.384;2024-02-23T05:40:44;5.63;;;1.65;;
22634;SDS011;11484;50.858;4.384;2024-02-23T05:43:10;8.48;;;1.70;;
22634;SDS011;11484;50.858;4.384;2024-02-23T05:45:36;5.32;;;1.38;;
22634;SDS011;11484;50.858;4.384;2024-02-23T05:48:02;7.07;;;1.45;;
22634;SDS011;11484;50.858;4.384;2024-02-23T05:50:28;5.85;;;1.90;;
22634;SDS011;11484;50.858;4.384;2024-02-23T05:52:53;6.53;;;1.38;;
22634;SDS011;11484;50.858;4.384;2024-02-23T05:55:19;4.68;;;1.63;;
22634;SDS011;11484;50.858;4.384;2024-02-23T05:57:45;5.38;;;1.33;;
22634;SDS011;11484;50.858;4.384;2024-02-23T06:00:11;4.38;;;1.73;;
22634;SDS011;11484;50.858;4.384;2024-02-23T06:02:37;8.07;;;1.90;;
22634;SDS011;11484;50.858;4.384;2024-02-23T06:05:04;4.28;;;1.77;;
22634;SDS011;11484;50.858;4.384;2024-02-23T06:07:32;7.15;;;1.95;;
22634;SDS011;11484;50.858;4.384;2024-02-23T06:09:59;7.63;;;1.88;;
22634;SDS011;11484;50.858;4.384;2024-02-23T06:12:25;4.68;;;1.52;;
22634;SDS011;11484;50.858;4.384;2024-02-23T06:14:52;9.60;;;2.00;;
22634;SDS011;11484;50.858;4.384;2024-02-23T06:17:18;4.82;;;1.80;;
22634;SDS011;11484;50.858;4.384;2024-02-23T06:19:43;5.35;;;1.65;;
22634;SDS011;11484;50.858;4.384;2024-02-23T06:22:09;7.03;;;1.73;;
22634;SDS011;11484;50.858;4.384;2024-02-23T06:24:36;6.10;;;1.85;;
22634;SDS011;11484;50.858;4.384;2024-02-23T06:27:01;8.15;;;1.60;;
22634;SDS011;11484;50.858;4.384;2024-02-23T06:29:28;4.35;;;1.60;;
22634;SDS011;11484;50.858;4.384;2024-02-23T06:31:54;5.40;;;1.55;;
22634;SDS011;11484;50.858;4.384;2024-02-23T06:34:21;6.95;;;2.50;;
22634;SDS011;11484;50.858;4.384;2024-02-23T06:36:47;6.32;;;1.70;;
22634;SDS011;11484;50.858;4.384;2024-02-23T06:39:12;4.50;;;1.60;;
22634;SDS011;11484;50.858;4.384;2024-02-23T06:41:38;5.57;;;1.55;;
22634;SDS011;11484;50.858;4.384;2024-02-23T06:44:04;10.02;;;1.50;;
22634;SDS011;11484;50.858;4.384;2024-02-23T06:46:30;7.93;;;1.60;;
22634;SDS011;11484;50.858;4.384;2024-02-23T06:48:56;4.68;;;1.60;;
22634;SDS011;11484;50.858;4.384;2024-02-23T06:51:22;6.80;;;1.33;;
22634;SDS011;11484;50.858;4.384;2024-02-23T06:53:47;6.72;;;1.60;;
22634;SDS011;11484;50.858;4.384;2024-02-23T06:56:13;6.65;;;1.42;;
22634;SDS011;11484;50.858;4.384;2024-02-23T06:58:39;6.53;;;1.60;;
22634;SDS011;11484;50.858;4.384;2024-02-23T07:01:05;6.65;;;1.77;;
22634;SDS011;11484;50.858;4.384;2024-02-23T07:03:32;7.38;;;1.85;;
22634;SDS011;11484;50.858;4.384;2024-02-23T07:06:00;12.90;;;1.90;;
22634;SDS011;11484;50.858;4.384;2024-02-23T07:08:26;5.95;;;1.80;;
22634;SDS011;11484;50.858;4.384;2024-02-23T07:10:51;7.18;;;1.75;;
22634;SDS011;11484;50.858;4.384;2024-02-23T07:13:17;6.45;;;1.58;;
22634;SDS011;11484;50.858;4.384;2024-02-23T07:15:45;7.00;;;1.80;;
22634;SDS011;11484;50.858;4.384;2024-02-23T07:18:10;4.82;;;1.50;;
22634;SDS011;11484;50.858;4.384;2024-02-23T07:20:36;5.82;;;1.58;;
22634;SDS011;11484;50.858;4.384;2024-02-23T07:23:02;7.38;;;1.75;;
22634;SDS011;11484;50.858;4.384;2024-02-23T07:25:28;8.10;;;2.20;;
22634;SDS011;11484;50.858;4.384;2024-02-23T07:27:54;6.00;;;1.77;;
22634;SDS011;11484;50.858;4.384;2024-02-23T07:30:20;6.65;;;1.70;;
22634;SDS011;11484;50.858;4.384;2024-02-23T07:32:48;7.97;;;2.25;;
22634;SDS011;11484;50.858;4.384;2024-02-23T07:35:14;6.28;;;1.67;;
22634;SDS011;11484;50.858;4.384;2024-02-23T07:37:40;4.88;;;1.65;;
22634;SDS011;11484;50.858;4.384;2024-02-23T07:40:05;6.85;;;1.90;;
22634;SDS011;11484;50.858;4.384;2024-02-23T07:42:32;4.63;;;1.77;;
22634;SDS011;11484;50.858;4.384;2024-02-23T07:45:01;8.35;;;1.60;;
22634;SDS011;11484;50.858;4.384;2024-02-23T07:47:33;7.18;;;1.55;;
22634;SDS011;11484;50.858;4.384;2024-02-23T07:49:59;11.27;;;1.73;;
22634;SDS011;11484;50.858;4.384;2024-02-23T07:52:25;8.90;;;1.75;;
22634;SDS011;11484;50.858;4.384;2024-02-23T07:54:52;9.68;;;1.50;;
22634;SDS011;11484;50.858;4.384;2024-02-23T07:57:21;8.27;;;1.58;;
22634;SDS011;11484;50.858;4.384;2024-02-23T07:59:47;6.53;;;1.25;;
22634;SDS011;11484;50.858;4.384;2024-02-23T08:02:14;4.65;;;1.40;;
22634;SDS011;11484;50.858;4.384;2024-02-23T08:04:40;7.82;;;1.83;;
22634;SDS011;11484;50.858;4.384;2024-02-23T08:07:07;5.38;;;2.33;;
22634;SDS011;11484;50.858;4.384;2024-02-23T08:09:33;8.23;;;1.55;;
22634;SDS011;11484;50.858;4.384;2024-02-23T08:11:58;6.45;;;1.65;;
22634;SDS011;11484;50.858;4.384;2024-02-23T08:14:24;7.20;;;1.67;;
22634;SDS011;11484;50.858;4.384;2024-02-23T08:16:50;7.10;;;1.70;;
22634;SDS011;11484;50.858;4.384;2024-02-23T08:19:16;8.48;;;2.28;;
22634;SDS011;11484;50.858;4.384;2024-02-23T08:21:42;7.75;;;1.60;;
22634;SDS011;11484;50.858;4.384;2024-02-23T08:24:08;7.47;;;1.63;;
22634;SDS011;11484;50.858;4.384;2024-02-23T08:26:36;5.45;;;1.77;;
22634;SDS011;11484;50.858;4.384;2024-02-23T08:29:03;7.25;;;2.05;;
22634;SDS011;11484;50.858;4.384;2024-02-23T08:31:29;5.53;;;1.77;;
22634;SDS011;11484;50.858;4.384;2024-02-23T08:33:55;5.55;;;1.60;;
22634;SDS011;11484;50.858;4.384;2024-02-23T08:36:21;7.72;;;1.83;;
22634;SDS011;11484;50.858;4.384;2024-02-23T08:38:47;8.93;;;2.33;;
22634;SDS011;11484;50.858;4.384;2024-02-23T08:41:12;8.23;;;2.13;;
22634;SDS011;11484;50.858;4.384;2024-02-23T08:43:38;6.15;;;1.50;;
22634;SDS011;11484;50.858;4.384;2024-02-23T08:46:04;6.85;;;2.00;;
22634;SDS011;11484;50.858;4.384;2024-02-23T08:48:30;6.10;;;1.65;;
22634;SDS011;11484;50.858;4.384;2024-02-23T08:50:55;8.50;;;1.95;;
22634;SDS011;11484;50.858;4.384;2024-02-23T08:53:21;6.20;;;1.63;;
22634;SDS011;11484;50.858;4.384;2024-02-23T08:55:46;4.65;;;1.60;;
22634;SDS011;11484;50.858;4.384;2024-02-23T08:58:12;7.07;;;1.77;;
22634;SDS011;11484;50.858;4.384;2024-02-23T09:00:39;4.93;;;1.77;;
22634;SDS011;11484;50.858;4.384;2024-02-23T09:03:05;8.18;;;2.13;;
22634;SDS011;11484;50.858;4.384;2024-02-23T09:05:30;4.63;;;1.60;;
22634;SDS011;11484;50.858;4.384;2024-02-23T09:07:56;7.90;;;2.80;;
22634;SDS011;11484;50.858;4.384;2024-02-23T09:10:22;5.00;;;2.25;;
22634;SDS011;11484;50.858;4.384;2024-02-23T09:12:47;6.40;;;2.30;;
22634;SDS011;11484;50.858;4.384;2024-02-23T09:15:13;8.50;;;2.38;;
22634;SDS011;11484;50.858;4.384;2024-02-23T09:17:42;12.15;;;2.40;;
22634;SDS011;11484;50.858;4.384;2024-02-23T09:20:08;7.35;;;2.60;;
22634;SDS011;11484;50.858;4.384;2024-02-23T09:22:34;6.53;;;2.45;;
22634;SDS011;11484;50.858;4.384;2024-02-23T09:25:01;6.93;;;2.80;;
22634;SDS011;11484;50.858;4.384;2024-02-23T09:27:27;6.50;;;2.50;;
22634;SDS011;11484;50.858;4.384;2024-02-23T09:29:53;9.60;;;2.53;;
22634;SDS011;11484;50.858;4.384;2024-02-23T09:32:19;8.55;;;2.00;;
22634;SDS011;11484;50.858;4.384;2024-02-23T09:34:45;5.40;;;1.83;;
22634;SDS011;11484;50.858;4.384;2024-02-23T09:37:17;6.15;;;2.13;;
22634;SDS011;11484;50.858;4.384;2024-02-23T09:39:43;8.85;;;2.00;;
22634;SDS011;11484;50.858;4.384;2024-02-23T09:42:10;6.45;;;2.03;;
22634;SDS011;11484;50.858;4.384;2024-02-23T09:44:38;7.05;;;2.40;;
22634;SDS011;11484;50.858;4.384;2024-02-23T09:47:06;7.18;;;2.47;;
22634;SDS011;11484;50.858;4.384;2024-02-23T09:49:38;9.07;;;2.88;;
22634;SDS011;11484;50.858;4.384;2024-02-23T09:54:33;8.88;;;1.88;;
22634;SDS011;11484;50.858;4.384;2024-02-23T09:56:59;5.20;;;2.45;;
22634;SDS011;11484;50.858;4.384;2024-02-23T09:59:26;4.88;;;1.92;;
22634;SDS011;11484;50.858;4.384;2024-02-23T10:01:53;8.55;;;2.15;;
22634;SDS011;11484;50.858;4.384;2024-02-23T10:04:19;7.35;;;2.40;;
22634;SDS011;11484;50.858;4.384;2024-02-23T10:06:44;7.32;;;2.35;;
22634;SDS011;11484;50.858;4.384;2024-02-23T10:09:10;6.38;;;2.45;;
22634;SDS011;11484;50.858;4.384;2024-02-23T10:11:38;7.43;;;2.33;;
22634;SDS011;11484;50.858;4.384;2024-02-23T10:14:04;7.10;;;2.28;;
22634;SDS011;11484;50.858;4.384;2024-02-23T10:16:30;5.00;;;2.17;;
22634;SDS011;11484;50.858;4.384;2024-02-23T10:18:57;5.85;;;2.55;;
22634;SDS011;11484;50.858;4.384;2024-02-23T10:21:26;6.80;;;2.67;;
22634;SDS011;11484;50.858;4.384;2024-02-23T10:23:53;5.85;;;2.47;;
22634;SDS011;11484;50.858;4.384;2024-02-23T10:26:20;9.05;;;3.20;;
22634;SDS011;11484;50.858;4.384;2024-02-23T10:28:47;9.10;;;2.50;;
22634;SDS011;11484;50.858;4.384;2024-02-23T10:31:13;11.25;;;3.10;;
22634;SDS011;11484;50.858;4.384;2024-02-23T10:33:39;8.80;;;2.70;;
22634;SDS011;11484;50.858;4.384;2024-02-23T10:36:05;8.60;;;3.70;;
22634;SDS011;11484;50.858;4.384;2024-02-23T10:38:35;6.32;;;2.40;;
22634;SDS011;11484;50.858;4.384;2024-02-23T10:41:23;6.57;;;2.40;;
22634;SDS011;11484;50.858;4.384;2024-02-23T10:43:49;6.30;;;2.80;;
22634;SDS011;11484;50.858;4.384;2024-02-23T10:46:18;5.80;;;2.35;;
22634;SDS011;11484;50.858;4.384;2024-02-23T10:48:46;6.45;;;2.47;;
22634;SDS011;11484;50.858;4.384;2024-02-23T10:51:14;6.60;;;2.22;;
22634;SDS011;11484;50.858;4.384;2024-02-23T10:53:41;5.35;;;2.00;;
22634;SDS011;11484;50.858;4.384;2024-02-23T10:56:11;6.88;;;2.30;;
22634;SDS011;11484;50.858;4.384;2024-02-23T10:58:37;7.15;;;2.17;;
22634;SDS011;11484;50.858;4.384;2024-02-23T11:01:06;5.43;;;2.05;;
22634;SDS011;11484;50.858;4.384;2024-02-23T11:03:34;8.88;;;2.40;;
22634;SDS011;11484;50.858;4.384;2024-02-23T11:06:02;6.57;;;2.30;;
22634;SDS011;11484;50.858;4.384;2024-02-23T11:08:35;8.68;;;2.67;;
22634;SDS011;11484;50.858;4.384;2024-02-23T11:11:10;5.63;;;2.20;;
22634;SDS011;11484;50.858;4.384;2024-02-23T11:13:38;6.90;;;2.15;;
22634;SDS011;11484;50.858;4.384;2024-02-23T11:16:08;5.07;;;2.00;;
22634;SDS011;11484;50.858;4.384;2024-02-23T11:18:34;4.47;;;2.05;;
22634;SDS011;11484;50.858;4.384;2024-02-23T11:21:02;6.28;;;1.95;;
22634;SDS011;11484;50.858;4.384;2024-02-23T11:23:44;7.93;;;2.60;;
22634;SDS011;11484;50.858;4.384;2024-02-23T11:26:16;8.68;;;2.22;;
22634;SDS011;11484;50.858;4.384;2024-02-23T11:28:53;7.22;;;2.08;;
22634;SDS011;11484;50.858;4.384;2024-02-23T11:31:20;6.88;;;1.90;;
22634;SDS011;11484;50.858;4.384;2024-02-23T11:33:53;7.93;;;1.90;;
22634;SDS011;11484;50.858;4.384;2024-02-23T11:39:04;7.00;;;2.13;;
22634;SDS011;11484;50.858;4.384;2024-02-23T11:41:30;11.80;;;2.33;;
22634;SDS011;11484;50.858;4.384;2024-02-23T11:43:57;7.63;;;2.58;;
22634;SDS011;11484;50.858;4.384;2024-02-23T11:46:23;7.15;;;2.10;;
22634;SDS011;11484;50.858;4.384;2024-02-23T11:48:49;6.78;;;2.10;;
22634;SDS011;11484;50.858;4.384;2024-02-23T11:51:21;6.72;;;2.10;;
22634;SDS011;11484;50.858;4.384;2024-02-23T11:53:48;4.30;;;2.13;;
22634;SDS011;11484;50.858;4.384;2024-02-23T11:56:16;8.88;;;2.55;;
22634;SDS011;11484;50.858;4.384;2024-02-23T11:58:43;7.45;;;2.42;;
22634;SDS011;11484;50.858;4.384;2024-02-23T12:01:09;6.65;;;2.33;;
22634;SDS011;11484;50.858;4.384;2024-02-23T12:03:35;5.68;;;2.13;;
22634;SDS011;11484;50.858;4.384;2024-02-23T12:06:04;5.80;;;2.30;;
22634;SDS011;11484;50.858;4.384;2024-02-23T12:08:31;5.63;;;2.00;;
22634;SDS011;11484;50.858;4.384;2024-02-23T12:11:07;5.95;;;2.33;;
22634;SDS011;11484;50.858;4.384;2024-02-23T12:13:50;5.70;;;2.45;;
22634;SDS011;11484;50.858;4.384;2024-02-23T12:16:20;6.25;;;2.90;;
22634;SDS011;11484;50.858;4.384;2024-02-23T12:18:52;4.47;;;2.40;;
22634;SDS011;11484;50.858;4.384;2024-02-23T12:21:20;8.65;;;2.80;;
22634;SDS011;11484;50.858;4.384;2024-02-23T12:23:47;8.13;;;2.78;;
22634;SDS011;11484;50.858;4.384;2024-02-23T12:26:16;8.27;;;3.05;;
22634;SDS011;11484;50.858;4.384;2024-02-23T12:28:43;9.50;;;3.85;;
22634;SDS011;11484;50.858;4.384;2024-02-23T12:31:09;7.20;;;2.63;;
22634;SDS011;11484;50.858;4.384;2024-02-23T12:33:37;8.90;;;2.85;;
22634;SDS011;11484;50.858;4.384;2024-02-23T12:36:13;8.50;;;2.83;;
22634;SDS011;11484;50.858;4.384;2024-02-23T12:38:40;11.20;;;3.50;;
22634;SDS011;11484;50.858;4.384;2024-02-23T12:41:05;10.30;;;3.03;;
22634;SDS011;11484;50.858;4.384;2024-02-23T12:43:31;8.15;;;2.70;;
22634;SDS011;11484;50.858;4.384;2024-02-23T12:45:57;5.70;;;2.40;;
22634;SDS011;11484;50.858;4.384;2024-02-23T12:48:23;10.02;;;2.72;;
22634;SDS011;11484;50.858;4.384;2024-02-23T12:50:49;10.30;;;2.13;;
22634;SDS011;11484;50.858;4.384;2024-02-23T12:53:35;4.90;;;2.47;;
22634;SDS011;11484;50.858;4.384;2024-02-23T12:56:06;5.13;;;2.58;;
22634;SDS011;11484;50.858;4.384;2024-02-23T13:01:02;6.95;;;2.50;;
22634;SDS011;11484;50.858;4.384;2024-02-23T13:03:28;7.72;;;2.67;;
22634;SDS011;11484;50.858;4.384;2024-02-23T13:05:56;8.75;;;2.40;;
22634;SDS011;11484;50.858;4.384;2024-02-23T13:08:23;8.25;;;2.22;;
22634;SDS011;11484;50.858;4.384;2024-02-23T13:10:49;5.97;;;2.10;;
22634;SDS011;11484;50.858;4.384;2024-02-23T13:13:15;6.65;;;2.42;;
22634;SDS011;11484;50.858;4.384;2024-02-23T13:15:42;3.38;;;1.25;;
22634;SDS011;11484;50.858;4.384;2024-02-23T13:18:08;3.88;;;1.75;;
22634;SDS011;11484;50.858;4.384;2024-02-23T13:20:34;5.43;;;1.88;;
22634;SDS011;11484;50.858;4.384;2024-02-23T13:23:01;5.53;;;1.90;;
22634;SDS011;11484;50.858;4.384;2024-02-23T13:25:27;8.05;;;2.80;;
22634;SDS011;11484;50.858;4.384;2024-02-23T13:27:53;6.55;;;1.70;;
22634;SDS011;11484;50.858;4.384;2024-02-23T13:30:21;4.30;;;1.58;;
22634;SDS011;11484;50.858;4.384;2024-02-23T13:32:46;4.18;;;1.67;;
22634;SDS011;11484;50.858;4.384;2024-02-23T13:35:12;6.30;;;1.92;;
22634;SDS011;11484;50.858;4.384;2024-02-23T13:37:42;4.63;;;1.73;;
22634;SDS011;11484;50.858;4.384;2024-02-23T13:40:17;9.90;;;2.00;;
22634;SDS011;11484;50.858;4.384;2024-02-23T13:42:43;4.40;;;1.80;;
22634;SDS011;11484;50.858;4.384;2024-02-23T13:45:15;7.90;;;1.80;;
22634;SDS011;11484;50.858;4.384;2024-02-23T13:47:42;7.57;;;1.98;;
22634;SDS011;11484;50.858;4.384;2024-02-23T13:50:09;11.25;;;1.92;;
22634;SDS011;11484;50.858;4.384;2024-02-23T13:52:35;3.67;;;1.80;;
22634;SDS011;11484;50.858;4.384;2024-02-23T13:55:02;6.30;;;1.92;;
22634;SDS011;11484;50.858;4.384;2024-02-23T13:57:28;5.40;;;1.80;;
22634;SDS011;11484;50.858;4.384;2024-02-23T13:59:54;8.70;;;2.90;;
22634;SDS011;11484;50.858;4.384;2024-02-23T14:02:26;6.38;;;2.00;;
22634;SDS011;11484;50.858;4.384;2024-02-23T14:04:55;8.82;;;2.38;;
22634;SDS011;11484;50.858;4.384;2024-02-23T14:07:27;6.05;;;1.77;;
22634;SDS011;11484;50.858;4.384;2024-02-23T14:09:53;6.07;;;1.80;;
22634;SDS011;11484;50.858;4.384;2024-02-23T14:12:18;7.57;;;2.17;;
22634;SDS011;11484;50.858;4.384;2024-02-23T14:14:44;8.52;;;2.05;;
22634;SDS011;11484;50.858;4.384;2024-02-23T14:17:10;6.20;;;1.70;;
22634;SDS011;11484;50.858;4.384;2024-02-23T14:19:37;5.85;;;2.25;;
22634;SDS011;11484;50.858;4.384;2024-02-23T14:22:04;5.88;;;3.13;;
22634;SDS011;11484;50.858;4.384;2024-02-23T14:24:30;8.90;;;2.58;;
22634;SDS011;11484;50.858;4.384;2024-02-23T14:26:56;3.95;;;1.38;;
22634;SDS011;11484;50.858;4.384;2024-02-23T14:29:24;4.57;;;1.50;;
22634;SDS011;11484;50.858;4.384;2024-02-23T14:31:50;7.15;;;1.95;;
22634;SDS011;11484;50.858;4.384;2024-02-23T14:34:16;5.38;;;1.30;;
22634;SDS011;11484;50.858;4.384;2024-02-23T14:36:42;3.63;;;1.40;;
22634;SDS011;11484;50.858;4.384;2024-02-23T14:39:09;4.25;;;1.08;;
22634;SDS011;11484;50.858;4.384;2024-02-23T14:41:37;2.95;;;1.33;;
22634;SDS011;11484;50.858;4.384;2024-02-23T14:44:04;3.60;;;1.20;;
22634;SDS011;11484;50.858;4.384;2024-02-23T14:46:29;5.45;;;1.50;;
22634;SDS011;11484;50.858;4.384;2024-02-23T14:48:57;3.60;;;1.17;;
22634;SDS011;11484;50.858;4.384;2024-02-23T14:51:23;6.22;;;1.60;;
22634;SDS011;11484;50.858;4.384;2024-02-23T14:54:07;3.45;;;1.25;;